Portada
METAR-TAF:

METAR-TAF

Aeroports :

Dalian, Xina

latitud: 38-54N, longitud: 121-38E, altitud: 97 m

Observació

L'informe es va fer fa 29 minuts, a les 08:30 UTC
Vent 8 kt del Nord-Oest, variant entre Oest i Nord
Temperatura 20°C
Humitat 64%
Pressió 1009 hPa
Visibilitat 10 km o més
Núvols disperses a una alçada de 3300 ft

METAR: ZYTL 160830Z 31004MPS 280V350 9999 SCT033 20/13 Q1009 NOSIG

Hora: 16:59 (08:59 UTC)

Pronòstic

L'informe es va fer fa 5 hores i 49 minuts, a les 03:10 UTC
Pronòstic vàlid del 16 a les 06 UTC al 17 a les 06 UTC
Vent 8 kt del Nord-Oest amb ràfegues de 19 kt
Visibilitat 10 km o més
sense núvols per sota de 1500 mi sense presència de cumulonimbus.

TAF: ZYTL 160310Z 1606/1706 32004G10MPS CAVOK TX26/1606Z TN18/1621Z

Observacions i pronòstics meteorològics de més de 4000 aeroports (METAR i TAF).

Les estacions disponibles són els punts grocs i vermells al mapa.

Posi el ratolí al punt desitjat per veure el nom de l'estació.

Feu clic per veure les observacions i els pronòstics meteorològics.

Per canviar el mapa: feu clic els botons verds amb una creu de color negre per apropar; al botó verd amb un guió per allunyar la imatge; o en les fletxes verdes per a mapes adjacents.


METAR-TAF: